Rocky Comfort, MO (64861)

2:24 PM CST on February 10, 2016 (GMT -0600)
Farm Road 2100 | | Change Station
CLOSE
Current Station
Personal Weather Station
Location: Wheaton, MO
Elevation: 1335 ft
Nearby Weather Stations

Elev 1335 ft 36.79 °N, 94.07 °W | Updated 11 seconds ago

Clear
Clear
47.6 °F
Feels Like 41 °F
N
17.0
Wind Variable Wind from WSW
Gusts 19.0 mph

Today
High -- | Low -- °F
--% Chance of Precip.
Yesterday
High -- | Low -- °F
Precip. -- in
Pressure 29.99 in
Visibility 10.0 miles
Clouds Clear
Windchill 41 °F
Dew Point 23 °F
Humidity 37%
Rainfall 0.00 in
Snow Depth Not available.
7:10 AM 5:51 PM
Waxing Crescent, 7% visible
METAR KHFJ 102015Z AUTO 23012G21KT 10SM CLR 08/M06 A2999 RMK AO2
Pressure 29.99 in
Visibility 10.0 miles
Clouds Clear
Windchill 41 °F
Dew Point 23 °F
Humidity 37%
Rainfall 0.00 in
Snow Depth Not available.
7:10 AM 5:51 PM
Waxing Crescent, 7% visible
METAR KHFJ 102015Z AUTO 23012G21KT 10SM CLR 08/M06 A2999 RMK AO2

10-Day Weather Forecast

Almanac

Astronomy

Feb. 10, 2016 Rise Set
Actual Time
Civil Twilight
Nautical Twilight
Astronomical Twilight
Moon
Length of Visible Light
Length of Day
Tomorrow will be .
, % of the Moon is Illuminated

Today's Extremes

State Highs State Lows

Community

WunderPhotos

Upload Photos

1,891,942 photos uploaded!

WunderBlog® & News

Nearby

Air Quality

  Air Quality AQ Index Pollutant
Not available.

Snow Depth

Station Depth Elevation

Earthquake Activity

City Distance Mag. Time & Date
Minimum magnitude displayed is 2.5.

Coastal Water Temperatures

Place Temperature

Stations

Nearby Weather Stations

Station Location Temp. Windchill Dew Point Humidity Wind Precip. Elev Updated Type
                   

Watches & Warnings

There are currently no watches in effect.